sensor_id;sensor_type;location;lat;lon;timestamp;pressure;altitude;pressure_sealevel;temperature;humidity
46111;BME280;31849;55.992;37.252;2023-08-21T00:03:38;99248.63;;;15.51;67.95
46111;BME280;31849;55.992;37.252;2023-08-21T00:08:43;99249.66;;;15.45;68.08
46111;BME280;31849;55.992;37.252;2023-08-21T00:13:46;99245.38;;;15.41;68.44
46111;BME280;31849;55.992;37.252;2023-08-21T00:18:51;99241.28;;;15.31;68.73
46111;BME280;31849;55.992;37.252;2023-08-21T00:23:56;99232.53;;;15.32;68.80
46111;BME280;31849;55.992;37.252;2023-08-21T00:29:00;99233.53;;;15.26;68.42
46111;BME280;31849;55.992;37.252;2023-08-21T00:34:03;99233.63;;;15.23;68.55
46111;BME280;31849;55.992;37.252;2023-08-21T00:39:08;99236.28;;;15.22;68.44
46111;BME280;31849;55.992;37.252;2023-08-21T00:44:12;99242.28;;;15.25;68.19
46111;BME280;31849;55.992;37.252;2023-08-21T00:49:15;99227.66;;;15.17;68.61
46111;BME280;31849;55.992;37.252;2023-08-21T00:54:20;99227.69;;;15.15;68.75
46111;BME280;31849;55.992;37.252;2023-08-21T00:59:24;99229.69;;;15.05;68.71
46111;BME280;31849;55.992;37.252;2023-08-21T01:04:27;99226.50;;;14.92;68.98
46111;BME280;31849;55.992;37.252;2023-08-21T01:09:36;99230.81;;;14.95;69.05
46111;BME280;31849;55.992;37.252;2023-08-21T01:14:50;99231.75;;;14.92;69.25
46111;BME280;31849;55.992;37.252;2023-08-21T01:19:55;99232.81;;;14.84;69.27
46111;BME280;31849;55.992;37.252;2023-08-21T01:25:00;99228.66;;;14.75;69.57
46111;BME280;31849;55.992;37.252;2023-08-21T01:30:06;99233.22;;;14.67;69.77
46111;BME280;31849;55.992;37.252;2023-08-21T01:35:11;99239.50;;;14.58;69.58
46111;BME280;31849;55.992;37.252;2023-08-21T01:40:21;99240.38;;;14.57;69.46
46111;BME280;31849;55.992;37.252;2023-08-21T01:45:26;99234.53;;;14.44;69.82
46111;BME280;31849;55.992;37.252;2023-08-21T01:50:29;99240.69;;;14.43;69.47
46111;BME280;31849;55.992;37.252;2023-08-21T01:55:34;99249.56;;;14.36;70.18
46111;BME280;31849;55.992;37.252;2023-08-21T02:00:38;99256.56;;;14.34;69.78
46111;BME280;31849;55.992;37.252;2023-08-21T02:05:42;99259.22;;;14.32;69.45
46111;BME280;31849;55.992;37.252;2023-08-21T02:10:51;99247.88;;;14.33;69.44
46111;BME280;31849;55.992;37.252;2023-08-21T02:15:55;99251.50;;;14.26;69.63
46111;BME280;31849;55.992;37.252;2023-08-21T02:21:18;99249.91;;;14.19;70.28
46111;BME280;31849;55.992;37.252;2023-08-21T02:26:23;99252.44;;;14.22;69.88
46111;BME280;31849;55.992;37.252;2023-08-21T02:31:27;99257.63;;;14.23;69.75
46111;BME280;31849;55.992;37.252;2023-08-21T02:36:30;99260.28;;;14.22;69.33
46111;BME280;31849;55.992;37.252;2023-08-21T02:41:35;99262.84;;;14.25;69.25
46111;BME280;31849;55.992;37.252;2023-08-21T02:46:39;99262.81;;;14.27;69.25
46111;BME280;31849;55.992;37.252;2023-08-21T02:51:43;99265.38;;;14.30;68.56
46111;BME280;31849;55.992;37.252;2023-08-21T02:56:48;99265.31;;;14.33;68.84
46111;BME280;31849;55.992;37.252;2023-08-21T03:01:51;99266.13;;;14.35;68.57
46111;BME280;31849;55.992;37.252;2023-08-21T03:06:55;99276.47;;;14.41;68.32
46111;BME280;31849;55.992;37.252;2023-08-21T03:12:00;99269.22;;;14.54;68.19
46111;BME280;31849;55.992;37.252;2023-08-21T03:17:03;99267.34;;;14.59;67.30
46111;BME280;31849;55.992;37.252;2023-08-21T03:22:07;99263.69;;;14.69;67.28
46111;BME280;31849;55.992;37.252;2023-08-21T03:27:15;99268.69;;;14.80;66.86
46111;BME280;31849;55.992;37.252;2023-08-21T03:32:19;99266.81;;;14.85;66.04
46111;BME280;31849;55.992;37.252;2023-08-21T03:37:23;99248.06;;;15.02;65.51
46111;BME280;31849;55.992;37.252;2023-08-21T03:42:28;99257.94;;;15.28;64.89
46111;BME280;31849;55.992;37.252;2023-08-21T03:47:31;99263.13;;;15.30;64.43
46111;BME280;31849;55.992;37.252;2023-08-21T03:52:35;99265.06;;;15.58;63.73
46111;BME280;31849;55.992;37.252;2023-08-21T03:57:40;99264.72;;;18.23;56.27
46111;BME280;31849;55.992;37.252;2023-08-21T04:02:44;99271.34;;;20.66;49.53
46111;BME280;31849;55.992;37.252;2023-08-21T04:07:47;99276.63;;;20.28;50.27
46111;BME280;31849;55.992;37.252;2023-08-21T04:12:52;99279.56;;;25.36;40.02
46111;BME280;31849;55.992;37.252;2023-08-21T04:17:56;99273.69;;;28.27;34.24
46111;BME280;31849;55.992;37.252;2023-08-21T04:22:59;99278.84;;;30.56;30.18
46111;BME280;31849;55.992;37.252;2023-08-21T04:28:05;99291.13;;;32.34;27.92
46111;BME280;31849;55.992;37.252;2023-08-21T04:33:09;99284.34;;;33.50;25.54
46111;BME280;31849;55.992;37.252;2023-08-21T04:38:13;99282.41;;;34.73;23.98
46111;BME280;31849;55.992;37.252;2023-08-21T04:43:18;99288.31;;;35.69;22.30
46111;BME280;31849;55.992;37.252;2023-08-21T04:48:21;99287.44;;;36.97;21.29
46111;BME280;31849;55.992;37.252;2023-08-21T04:53:24;99297.75;;;38.24;19.63
46111;BME280;31849;55.992;37.252;2023-08-21T04:58:29;99287.03;;;39.40;18.72
46111;BME280;31849;55.992;37.252;2023-08-21T05:03:33;99289.00;;;39.10;18.27
46111;BME280;31849;55.992;37.252;2023-08-21T05:08:36;99294.53;;;39.38;17.72
46111;BME280;31849;55.992;37.252;2023-08-21T05:13:42;99287.44;;;39.01;17.85
46111;BME280;31849;55.992;37.252;2023-08-21T05:18:45;99289.34;;;40.57;16.81
46111;BME280;31849;55.992;37.252;2023-08-21T05:23:49;99288.34;;;41.53;15.61
46111;BME280;31849;55.992;37.252;2023-08-21T05:28:54;99288.34;;;41.93;15.94
46111;BME280;31849;55.992;37.252;2023-08-21T05:33:57;99293.16;;;41.51;15.89
46111;BME280;31849;55.992;37.252;2023-08-21T05:39:02;99291.91;;;41.94;15.15
46111;BME280;31849;55.992;37.252;2023-08-21T05:44:09;99284.56;;;42.73;14.20
46111;BME280;31849;55.992;37.252;2023-08-21T05:49:13;99297.41;;;43.68;14.16
46111;BME280;31849;55.992;37.252;2023-08-21T05:54:19;99295.34;;;44.07;13.67
46111;BME280;31849;55.992;37.252;2023-08-21T05:59:31;99287.22;;;44.19;13.74
46111;BME280;31849;55.992;37.252;2023-08-21T06:04:35;99288.69;;;44.22;13.88
46111;BME280;31849;55.992;37.252;2023-08-21T06:09:39;99286.69;;;44.96;13.06
46111;BME280;31849;55.992;37.252;2023-08-21T06:14:44;99281.97;;;46.17;12.25
46111;BME280;31849;55.992;37.252;2023-08-21T06:19:48;99272.56;;;44.32;12.92
46111;BME280;31849;55.992;37.252;2023-08-21T06:24:52;99267.31;;;45.64;11.66
46111;BME280;31849;55.992;37.252;2023-08-21T06:30:01;99267.66;;;45.56;12.03
46111;BME280;31849;55.992;37.252;2023-08-21T06:35:07;99279.22;;;46.81;11.39
46111;BME280;31849;55.992;37.252;2023-08-21T06:40:11;99276.63;;;47.37;10.45
46111;BME280;31849;55.992;37.252;2023-08-21T06:45:16;99281.56;;;47.52;10.64
46111;BME280;31849;55.992;37.252;2023-08-21T06:50:20;99283.78;;;47.21;10.18
46111;BME280;31849;55.992;37.252;2023-08-21T06:55:24;99275.75;;;46.10;10.84
46111;BME280;31849;55.992;37.252;2023-08-21T07:00:32;99275.91;;;44.16;11.60
46111;BME280;31849;55.992;37.252;2023-08-21T07:05:36;99270.41;;;45.02;11.28
46111;BME280;31849;55.992;37.252;2023-08-21T07:10:41;99283.13;;;43.34;11.32
46111;BME280;31849;55.992;37.252;2023-08-21T07:15:46;99263.28;;;36.87;16.33
46111;BME280;31849;55.992;37.252;2023-08-21T07:20:52;99268.88;;;34.65;18.31
46111;BME280;31849;55.992;37.252;2023-08-21T07:25:56;99271.50;;;31.18;21.53
46111;BME280;31849;55.992;37.252;2023-08-21T07:31:01;99268.75;;;34.32;19.20
46111;BME280;31849;55.992;37.252;2023-08-21T07:36:05;99268.75;;;34.75;18.30
46111;BME280;31849;55.992;37.252;2023-08-21T07:41:10;99267.56;;;32.46;20.83
46111;BME280;31849;55.992;37.252;2023-08-21T07:46:16;99253.50;;;35.82;18.45
46111;BME280;31849;55.992;37.252;2023-08-21T07:51:20;99255.34;;;35.73;17.88
46111;BME280;31849;55.992;37.252;2023-08-21T07:56:24;99257.00;;;33.44;19.64
46111;BME280;31849;55.992;37.252;2023-08-21T08:01:32;99244.00;;;32.86;20.54
46111;BME280;31849;55.992;37.252;2023-08-21T08:06:37;99253.78;;;36.91;16.69
46111;BME280;31849;55.992;37.252;2023-08-21T08:11:40;99248.22;;;35.07;18.56
46111;BME280;31849;55.992;37.252;2023-08-21T08:16:45;99248.53;;;31.82;21.51
46111;BME280;31849;55.992;37.252;2023-08-21T08:21:49;99242.38;;;31.62;22.14
46111;BME280;31849;55.992;37.252;2023-08-21T08:26:53;99237.66;;;30.86;23.49
46111;BME280;31849;55.992;37.252;2023-08-21T08:31:58;99237.34;;;31.87;21.22
46111;BME280;31849;55.992;37.252;2023-08-21T08:37:04;99239.25;;;32.04;21.84
46111;BME280;31849;55.992;37.252;2023-08-21T08:42:08;99224.84;;;31.38;22.43
46111;BME280;31849;55.992;37.252;2023-08-21T08:47:13;99215.72;;;30.61;23.08
46111;BME280;31849;55.992;37.252;2023-08-21T08:52:18;99219.97;;;29.92;24.78
46111;BME280;31849;55.992;37.252;2023-08-21T08:57:22;99213.03;;;28.28;26.08
46111;BME280;31849;55.992;37.252;2023-08-21T09:02:28;99203.19;;;27.83;27.45
46111;BME280;31849;55.992;37.252;2023-08-21T09:07:35;99198.53;;;27.51;26.83
46111;BME280;31849;55.992;37.252;2023-08-21T09:12:39;99190.41;;;26.93;27.21
46111;BME280;31849;55.992;37.252;2023-08-21T09:17:54;99179.56;;;27.07;27.22
46111;BME280;31849;55.992;37.252;2023-08-21T09:22:58;99185.06;;;27.17;27.45
46111;BME280;31849;55.992;37.252;2023-08-21T09:28:04;99191.63;;;26.89;28.01
46111;BME280;31849;55.992;37.252;2023-08-21T09:33:10;99187.38;;;26.12;28.99
46111;BME280;31849;55.992;37.252;2023-08-21T09:38:14;99186.09;;;26.18;29.48
46111;BME280;31849;55.992;37.252;2023-08-21T09:43:17;99184.63;;;26.38;28.86
46111;BME280;31849;55.992;37.252;2023-08-21T09:48:27;99185.09;;;26.56;28.07
46111;BME280;31849;55.992;37.252;2023-08-21T09:53:32;99179.97;;;27.25;27.50
46111;BME280;31849;55.992;37.252;2023-08-21T09:58:54;99185.31;;;27.25;27.57
46111;BME280;31849;55.992;37.252;2023-08-21T10:04:02;99169.00;;;27.41;27.96
46111;BME280;31849;55.992;37.252;2023-08-21T10:09:08;99171.59;;;27.30;27.58
46111;BME280;31849;55.992;37.252;2023-08-21T10:14:12;99160.75;;;26.73;28.16
46111;BME280;31849;55.992;37.252;2023-08-21T10:19:17;99161.44;;;26.14;29.37
46111;BME280;31849;55.992;37.252;2023-08-21T10:24:27;99148.00;;;26.28;29.18
46111;BME280;31849;55.992;37.252;2023-08-21T10:29:32;99147.56;;;26.22;28.89
46111;BME280;31849;55.992;37.252;2023-08-21T10:34:37;99147.44;;;25.73;29.20
46111;BME280;31849;55.992;37.252;2023-08-21T10:39:54;99146.25;;;25.77;28.58
46111;BME280;31849;55.992;37.252;2023-08-21T10:45:02;99140.28;;;25.87;28.70
46111;BME280;31849;55.992;37.252;2023-08-21T10:50:14;99121.81;;;24.93;30.39
46111;BME280;31849;55.992;37.252;2023-08-21T10:55:18;99134.47;;;24.90;30.90
46111;BME280;31849;55.992;37.252;2023-08-21T11:00:22;99129.84;;;24.79;30.00
46111;BME280;31849;55.992;37.252;2023-08-21T11:05:28;99115.34;;;24.98;30.71
46111;BME280;31849;55.992;37.252;2023-08-21T11:10:31;99110.34;;;25.19;29.81
46111;BME280;31849;55.992;37.252;2023-08-21T11:15:35;99113.44;;;25.13;30.02
46111;BME280;31849;55.992;37.252;2023-08-21T11:20:40;99114.69;;;25.07;29.71
46111;BME280;31849;55.992;37.252;2023-08-21T11:25:45;99125.50;;;24.78;29.58
46111;BME280;31849;55.992;37.252;2023-08-21T11:30:48;99125.25;;;24.41;30.23
46111;BME280;31849;55.992;37.252;2023-08-21T11:35:54;99116.16;;;24.31;30.38
46111;BME280;31849;55.992;37.252;2023-08-21T11:41:00;99117.50;;;24.23;30.70
46111;BME280;31849;55.992;37.252;2023-08-21T11:46:05;99117.13;;;24.84;30.54
46111;BME280;31849;55.992;37.252;2023-08-21T11:51:10;99114.56;;;25.36;30.34
46111;BME280;31849;55.992;37.252;2023-08-21T11:56:16;99113.25;;;25.54;29.01
46111;BME280;31849;55.992;37.252;2023-08-21T12:01:21;99100.88;;;25.15;29.47
46111;BME280;31849;55.992;37.252;2023-08-21T12:06:27;99083.22;;;25.01;29.62
46111;BME280;31849;55.992;37.252;2023-08-21T12:11:34;99093.75;;;25.15;29.19
46111;BME280;31849;55.992;37.252;2023-08-21T12:16:40;99092.13;;;25.00;28.83
46111;BME280;31849;55.992;37.252;2023-08-21T12:21:45;99097.50;;;24.72;29.33
46111;BME280;31849;55.992;37.252;2023-08-21T12:26:49;99093.38;;;24.54;30.00
46111;BME280;31849;55.992;37.252;2023-08-21T12:31:53;99088.25;;;24.65;30.12
46111;BME280;31849;55.992;37.252;2023-08-21T12:36:58;99080.66;;;25.12;29.67
46111;BME280;31849;55.992;37.252;2023-08-21T12:42:01;99068.00;;;25.16;29.13
46111;BME280;31849;55.992;37.252;2023-08-21T12:47:05;99069.72;;;25.17;29.03
46111;BME280;31849;55.992;37.252;2023-08-21T12:52:10;99063.19;;;24.82;29.34
46111;BME280;31849;55.992;37.252;2023-08-21T12:57:14;99065.94;;;24.81;29.35
46111;BME280;31849;55.992;37.252;2023-08-21T13:02:18;99053.09;;;24.87;29.46
46111;BME280;31849;55.992;37.252;2023-08-21T13:07:23;99045.38;;;24.57;29.37
46111;BME280;31849;55.992;37.252;2023-08-21T13:12:27;99053.03;;;24.34;30.13
46111;BME280;31849;55.992;37.252;2023-08-21T13:17:31;99057.91;;;24.28;29.87
46111;BME280;31849;55.992;37.252;2023-08-21T13:22:46;99049.47;;;23.79;29.94
46111;BME280;31849;55.992;37.252;2023-08-21T13:27:51;99018.66;;;23.91;30.94
46111;BME280;31849;55.992;37.252;2023-08-21T13:32:57;99046.78;;;24.08;31.01
46111;BME280;31849;55.992;37.252;2023-08-21T13:38:03;99047.31;;;24.40;30.82
46111;BME280;31849;55.992;37.252;2023-08-21T13:43:07;99041.09;;;24.54;30.43
46111;BME280;31849;55.992;37.252;2023-08-21T13:48:14;99033.56;;;24.61;31.25
46111;BME280;31849;55.992;37.252;2023-08-21T13:53:19;99025.78;;;24.45;30.91
46111;BME280;31849;55.992;37.252;2023-08-21T13:58:22;99020.69;;;24.55;31.21
46111;BME280;31849;55.992;37.252;2023-08-21T14:03:26;99024.47;;;24.51;30.14
46111;BME280;31849;55.992;37.252;2023-08-21T14:08:31;99023.84;;;24.47;30.42
46111;BME280;31849;55.992;37.252;2023-08-21T14:13:34;99001.16;;;24.29;30.67
46111;BME280;31849;55.992;37.252;2023-08-21T14:18:38;99023.53;;;24.12;31.09
46111;BME280;31849;55.992;37.252;2023-08-21T14:23:43;99026.22;;;23.97;31.58
46111;BME280;31849;55.992;37.252;2023-08-21T14:28:47;99023.59;;;23.83;32.37
46111;BME280;31849;55.992;37.252;2023-08-21T14:33:52;99018.50;;;23.65;32.78
46111;BME280;31849;55.992;37.252;2023-08-21T14:38:58;99023.44;;;23.57;33.02
46111;BME280;31849;55.992;37.252;2023-08-21T14:44:03;99016.34;;;23.43;33.12
46111;BME280;31849;55.992;37.252;2023-08-21T14:49:07;99004.81;;;23.15;33.56
46111;BME280;31849;55.992;37.252;2023-08-21T14:54:20;99013.81;;;23.27;34.26
46111;BME280;31849;55.992;37.252;2023-08-21T14:59:24;99008.19;;;23.03;34.10
46111;BME280;31849;55.992;37.252;2023-08-21T15:04:28;99011.69;;;22.89;35.19
46111;BME280;31849;55.992;37.252;2023-08-21T15:09:33;99013.47;;;22.89;34.59
46111;BME280;31849;55.992;37.252;2023-08-21T15:14:39;98998.88;;;22.81;34.51
46111;BME280;31849;55.992;37.252;2023-08-21T15:19:43;99000.28;;;22.73;34.73
46111;BME280;31849;55.992;37.252;2023-08-21T15:24:48;98998.50;;;22.73;35.24
46111;BME280;31849;55.992;37.252;2023-08-21T15:29:52;98996.00;;;22.56;34.93
46111;BME280;31849;55.992;37.252;2023-08-21T15:34:55;98996.56;;;22.30;34.74
46111;BME280;31849;55.992;37.252;2023-08-21T15:40:00;98998.28;;;22.16;35.24
46111;BME280;31849;55.992;37.252;2023-08-21T15:45:06;98995.28;;;21.91;35.69
46111;BME280;31849;55.992;37.252;2023-08-21T15:50:09;98990.91;;;21.74;36.34
46111;BME280;31849;55.992;37.252;2023-08-21T15:55:14;99000.13;;;21.67;37.10
46111;BME280;31849;55.992;37.252;2023-08-21T16:00:18;99003.63;;;21.52;39.59
46111;BME280;31849;55.992;37.252;2023-08-21T16:05:27;99004.06;;;21.26;41.15
46111;BME280;31849;55.992;37.252;2023-08-21T16:10:32;98996.34;;;21.06;42.81
46111;BME280;31849;55.992;37.252;2023-08-21T16:15:35;99007.28;;;20.82;44.07
46111;BME280;31849;55.992;37.252;2023-08-21T16:20:39;99004.56;;;20.66;44.39
46111;BME280;31849;55.992;37.252;2023-08-21T16:25:44;98995.53;;;20.53;46.02
46111;BME280;31849;55.992;37.252;2023-08-21T16:30:48;98996.53;;;20.33;47.38
46111;BME280;31849;55.992;37.252;2023-08-21T16:35:51;99004.75;;;20.09;47.90
46111;BME280;31849;55.992;37.252;2023-08-21T16:40:56;99005.00;;;19.85;49.03
46111;BME280;31849;55.992;37.252;2023-08-21T16:46:00;99011.16;;;19.65;49.54
46111;BME280;31849;55.992;37.252;2023-08-21T16:51:03;99009.41;;;19.47;49.91
46111;BME280;31849;55.992;37.252;2023-08-21T16:56:08;99004.63;;;19.36;50.16
46111;BME280;31849;55.992;37.252;2023-08-21T17:01:12;99004.19;;;19.26;50.29
46111;BME280;31849;55.992;37.252;2023-08-21T17:06:15;99005.38;;;19.19;51.01
46111;BME280;31849;55.992;37.252;2023-08-21T17:11:20;99002.75;;;19.19;51.17
46111;BME280;31849;55.992;37.252;2023-08-21T17:16:24;99005.03;;;19.08;51.59
46111;BME280;31849;55.992;37.252;2023-08-21T17:21:29;98994.63;;;19.05;51.42
46111;BME280;31849;55.992;37.252;2023-08-21T17:26:33;98997.38;;;19.02;51.06
46111;BME280;31849;55.992;37.252;2023-08-21T17:31:37;98994.16;;;18.95;51.74
46111;BME280;31849;55.992;37.252;2023-08-21T17:36:41;98996.44;;;18.82;52.69
46111;BME280;31849;55.992;37.252;2023-08-21T17:41:46;98998.22;;;18.81;50.61
46111;BME280;31849;55.992;37.252;2023-08-21T17:46:49;98984.81;;;18.67;52.71
46111;BME280;31849;55.992;37.252;2023-08-21T17:51:53;98986.72;;;18.63;53.54
46111;BME280;31849;55.992;37.252;2023-08-21T17:56:58;98988.47;;;18.63;53.70
46111;BME280;31849;55.992;37.252;2023-08-21T18:02:02;98988.16;;;18.50;53.81
46111;BME280;31849;55.992;37.252;2023-08-21T18:07:06;98980.66;;;18.41;54.32
46111;BME280;31849;55.992;37.252;2023-08-21T18:12:11;98986.91;;;18.38;54.24
46111;BME280;31849;55.992;37.252;2023-08-21T18:17:15;98978.47;;;18.30;54.66
46111;BME280;31849;55.992;37.252;2023-08-21T18:22:18;98977.19;;;18.18;55.08
46111;BME280;31849;55.992;37.252;2023-08-21T18:27:23;98976.63;;;18.12;55.43
46111;BME280;31849;55.992;37.252;2023-08-21T18:32:27;98965.91;;;17.94;55.74
46111;BME280;31849;55.992;37.252;2023-08-21T18:37:31;98967.06;;;17.87;55.83
46111;BME280;31849;55.992;37.252;2023-08-21T18:42:36;98967.94;;;17.87;55.77
46111;BME280;31849;55.992;37.252;2023-08-21T18:47:40;98971.66;;;17.82;55.61
46111;BME280;31849;55.992;37.252;2023-08-21T18:52:45;98966.78;;;17.71;56.00
46111;BME280;31849;55.992;37.252;2023-08-21T18:57:50;98964.41;;;17.65;55.98
46111;BME280;31849;55.992;37.252;2023-08-21T19:02:54;98960.69;;;17.48;56.19
46111;BME280;31849;55.992;37.252;2023-08-21T19:07:58;98958.53;;;17.36;56.51
46111;BME280;31849;55.992;37.252;2023-08-21T19:13:03;98957.78;;;17.32;56.85
46111;BME280;31849;55.992;37.252;2023-08-21T19:18:09;98958.25;;;17.20;57.04
46111;BME280;31849;55.992;37.252;2023-08-21T19:23:12;98941.41;;;17.02;57.18
46111;BME280;31849;55.992;37.252;2023-08-21T19:28:17;98948.50;;;17.00;57.29
46111;BME280;31849;55.992;37.252;2023-08-21T19:33:21;98959.44;;;16.87;57.55
46111;BME280;31849;55.992;37.252;2023-08-21T19:38:27;98948.34;;;16.79;57.61
46111;BME280;31849;55.992;37.252;2023-08-21T19:43:32;98947.50;;;16.77;57.63
46111;BME280;31849;55.992;37.252;2023-08-21T19:48:35;98952.94;;;16.47;57.96
46111;BME280;31849;55.992;37.252;2023-08-21T19:53:39;98955.28;;;16.03;58.82
46111;BME280;31849;55.992;37.252;2023-08-21T19:58:44;98958.84;;;16.02;58.84
46111;BME280;31849;55.992;37.252;2023-08-21T20:03:47;98954.97;;;15.87;59.03
46111;BME280;31849;55.992;37.252;2023-08-21T20:08:51;98942.94;;;15.80;59.32
46111;BME280;31849;55.992;37.252;2023-08-21T20:13:56;98959.00;;;15.68;59.54
46111;BME280;31849;55.992;37.252;2023-08-21T20:18:59;98959.69;;;15.74;59.54
46111;BME280;31849;55.992;37.252;2023-08-21T20:24:05;98949.03;;;15.80;59.51
46111;BME280;31849;55.992;37.252;2023-08-21T20:29:10;98941.91;;;15.86;59.66
46111;BME280;31849;55.992;37.252;2023-08-21T20:34:14;98941.81;;;15.89;59.78
46111;BME280;31849;55.992;37.252;2023-08-21T20:39:18;98940.03;;;15.89;60.21
46111;BME280;31849;55.992;37.252;2023-08-21T20:44:26;98937.19;;;15.95;60.20
46111;BME280;31849;55.992;37.252;2023-08-21T20:49:30;98948.00;;;15.86;60.15
46111;BME280;31849;55.992;37.252;2023-08-21T20:54:37;98948.69;;;15.91;59.86
46111;BME280;31849;55.992;37.252;2023-08-21T20:59:42;98939.88;;;15.94;59.92
46111;BME280;31849;55.992;37.252;2023-08-21T21:04:45;98943.50;;;15.90;59.91
46111;BME280;31849;55.992;37.252;2023-08-21T21:09:49;98940.97;;;15.87;59.89
46111;BME280;31849;55.992;37.252;2023-08-21T21:14:55;98933.88;;;15.90;59.54
46111;BME280;31849;55.992;37.252;2023-08-21T21:19:59;98929.91;;;15.77;59.92
46111;BME280;31849;55.992;37.252;2023-08-21T21:25:03;98932.81;;;15.68;59.92
46111;BME280;31849;55.992;37.252;2023-08-21T21:30:09;98922.66;;;15.57;60.19
46111;BME280;31849;55.992;37.252;2023-08-21T21:35:13;98926.78;;;15.37;60.38
46111;BME280;31849;55.992;37.252;2023-08-21T21:40:16;98922.47;;;15.35;60.41
46111;BME280;31849;55.992;37.252;2023-08-21T21:45:22;98910.22;;;15.37;60.51
46111;BME280;31849;55.992;37.252;2023-08-21T21:50:25;98901.91;;;15.22;60.51
46111;BME280;31849;55.992;37.252;2023-08-21T21:55:29;98909.06;;;15.16;60.46
46111;BME280;31849;55.992;37.252;2023-08-21T22:00:34;98904.81;;;15.13;60.42
46111;BME280;31849;55.992;37.252;2023-08-21T22:05:38;98901.78;;;14.97;61.25
46111;BME280;31849;55.992;37.252;2023-08-21T22:10:41;98883.53;;;14.94;60.78
46111;BME280;31849;55.992;37.252;2023-08-21T22:15:46;98877.63;;;14.87;60.87
46111;BME280;31849;55.992;37.252;2023-08-21T22:20:50;98881.34;;;14.80;61.05
46111;BME280;31849;55.992;37.252;2023-08-21T22:25:54;98883.13;;;14.78;61.12
46111;BME280;31849;55.992;37.252;2023-08-21T22:30:59;98878.16;;;14.69;61.27
46111;BME280;31849;55.992;37.252;2023-08-21T22:36:02;98866.16;;;14.62;61.45
46111;BME280;31849;55.992;37.252;2023-08-21T22:41:06;98868.97;;;14.54;61.56
46111;BME280;31849;55.992;37.252;2023-08-21T22:46:11;98859.44;;;14.51;61.32
46111;BME280;31849;55.992;37.252;2023-08-21T22:51:15;98860.53;;;14.42;61.76
46111;BME280;31849;55.992;37.252;2023-08-21T22:56:19;98853.75;;;14.35;61.33
46111;BME280;31849;55.992;37.252;2023-08-21T23:01:23;98846.97;;;14.30;61.60
46111;BME280;31849;55.992;37.252;2023-08-21T23:06:27;98849.69;;;14.25;61.74
46111;BME280;31849;55.992;37.252;2023-08-21T23:11:31;98839.34;;;14.20;61.40
46111;BME280;31849;55.992;37.252;2023-08-21T23:16:36;98841.94;;;14.22;61.71
46111;BME280;31849;55.992;37.252;2023-08-21T23:21:39;98839.28;;;14.23;61.41
46111;BME280;31849;55.992;37.252;2023-08-21T23:26:43;98840.19;;;14.22;61.09
46111;BME280;31849;55.992;37.252;2023-08-21T23:31:48;98837.56;;;14.22;61.21
46111;BME280;31849;55.992;37.252;2023-08-21T23:36:51;98826.25;;;14.22;60.99
46111;BME280;31849;55.992;37.252;2023-08-21T23:41:55;98834.91;;;14.24;60.86
46111;BME280;31849;55.992;37.252;2023-08-21T23:47:01;98829.50;;;14.30;61.22
46111;BME280;31849;55.992;37.252;2023-08-21T23:52:05;98826.06;;;14.30;60.71
46111;BME280;31849;55.992;37.252;2023-08-21T23:57:09;98818.41;;;14.22;61.19
